sensor_id;sensor_type;location;lat;lon;timestamp;pressure;altitude;pressure_sealevel;temperature;humidity
59690;BME280;45557;50.298;18.930;2022-12-07T00:01:12;97780.53;;;1.42;85.59
59690;BME280;45557;50.298;18.930;2022-12-07T00:07:51;97783.01;;;1.45;85.89
59690;BME280;45557;50.298;18.930;2022-12-07T00:14:34;97780.90;;;1.44;85.99
59690;BME280;45557;50.298;18.930;2022-12-07T00:21:27;97776.71;;;1.49;86.09
59690;BME280;45557;50.298;18.930;2022-12-07T00:28:09;97779.60;;;1.54;86.00
59690;BME280;45557;50.298;18.930;2022-12-07T00:34:54;97777.91;;;1.55;86.00
59690;BME280;45557;50.298;18.930;2022-12-07T00:41:38;97768.86;;;1.56;85.44
59690;BME280;45557;50.298;18.930;2022-12-07T00:48:24;97761.47;;;1.51;85.63
59690;BME280;45557;50.298;18.930;2022-12-07T00:55:05;97764.13;;;1.43;85.61
59690;BME280;45557;50.298;18.930;2022-12-07T01:01:49;97762.21;;;1.48;85.78
59690;BME280;45557;50.298;18.930;2022-12-07T01:08:32;97755.38;;;1.57;86.27
59690;BME280;45557;50.298;18.930;2022-12-07T01:15:16;97750.70;;;1.63;85.89
59690;BME280;45557;50.298;18.930;2022-12-07T01:22:02;97742.02;;;1.71;85.79
59690;BME280;45557;50.298;18.930;2022-12-07T01:28:42;97736.02;;;1.78;85.77
59690;BME280;45557;50.298;18.930;2022-12-07T01:35:27;97738.23;;;1.84;85.58
59690;BME280;45557;50.298;18.930;2022-12-07T01:42:12;97739.54;;;1.93;85.03
59690;BME280;45557;50.298;18.930;2022-12-07T01:48:56;97737.48;;;1.93;84.89
59690;BME280;45557;50.298;18.930;2022-12-07T01:55:41;97735.45;;;1.87;84.88
59690;BME280;45557;50.298;18.930;2022-12-07T02:02:27;97734.68;;;1.96;85.01
59690;BME280;45557;50.298;18.930;2022-12-07T02:09:10;97732.70;;;1.96;84.97
59690;BME280;45557;50.298;18.930;2022-12-07T02:29:40;97734.41;;;1.83;85.16
59690;BME280;45557;50.298;18.930;2022-12-07T02:36:29;97737.44;;;1.77;85.01
59690;BME280;45557;50.298;18.930;2022-12-07T02:49:58;97726.84;;;1.78;85.22
59690;BME280;45557;50.298;18.930;2022-12-07T03:03:47;97717.05;;;1.80;85.45
59690;BME280;45557;50.298;18.930;2022-12-07T03:17:14;97711.21;;;1.77;85.44
59690;BME280;45557;50.298;18.930;2022-12-07T03:23:56;97705.83;;;1.78;85.41
59690;BME280;45557;50.298;18.930;2022-12-07T03:37:37;97700.27;;;1.77;85.48
59690;BME280;45557;50.298;18.930;2022-12-07T03:44:20;97700.73;;;1.75;85.39
59690;BME280;45557;50.298;18.930;2022-12-07T03:57:53;97699.21;;;1.67;85.48
59690;BME280;45557;50.298;18.930;2022-12-07T04:04:34;97702.90;;;1.68;85.54
59690;BME280;45557;50.298;18.930;2022-12-07T04:11:15;97697.64;;;1.66;85.77
59690;BME280;45557;50.298;18.930;2022-12-07T04:17:58;97694.69;;;1.66;85.91
59690;BME280;45557;50.298;18.930;2022-12-07T04:24:41;97687.70;;;1.70;85.53
59690;BME280;45557;50.298;18.930;2022-12-07T04:31:26;97693.42;;;1.69;85.35
59690;BME280;45557;50.298;18.930;2022-12-07T04:38:10;97694.40;;;1.64;85.17
59690;BME280;45557;50.298;18.930;2022-12-07T04:44:53;97699.22;;;1.66;85.30
59690;BME280;45557;50.298;18.930;2022-12-07T04:51:36;97699.73;;;1.67;84.95
59690;BME280;45557;50.298;18.930;2022-12-07T04:58:19;97696.09;;;1.58;84.86
59690;BME280;45557;50.298;18.930;2022-12-07T05:05:02;97690.38;;;1.53;85.08
59690;BME280;45557;50.298;18.930;2022-12-07T05:11:46;97697.54;;;1.47;85.26
59690;BME280;45557;50.298;18.930;2022-12-07T05:18:30;97703.53;;;1.41;85.51
59690;BME280;45557;50.298;18.930;2022-12-07T05:25:13;97698.80;;;1.44;85.92
59690;BME280;45557;50.298;18.930;2022-12-07T05:31:56;97700.19;;;1.42;85.59
59690;BME280;45557;50.298;18.930;2022-12-07T05:38:39;97707.23;;;1.36;85.38
59690;BME280;45557;50.298;18.930;2022-12-07T05:45:23;97706.71;;;1.31;85.89
59690;BME280;45557;50.298;18.930;2022-12-07T05:52:06;97701.24;;;1.26;86.19
59690;BME280;45557;50.298;18.930;2022-12-07T05:58:49;97702.92;;;1.20;86.44
59690;BME280;45557;50.298;18.930;2022-12-07T06:05:32;97703.34;;;1.17;85.91
59690;BME280;45557;50.298;18.930;2022-12-07T06:12:06;97705.27;;;1.18;86.20
59690;BME280;45557;50.298;18.930;2022-12-07T06:18:58;97713.74;;;1.18;86.51
59690;BME280;45557;50.298;18.930;2022-12-07T06:25:44;97718.15;;;1.20;86.37
59690;BME280;45557;50.298;18.930;2022-12-07T06:32:28;97722.40;;;1.21;86.43
59690;BME280;45557;50.298;18.930;2022-12-07T06:39:08;97733.78;;;1.19;86.52
59690;BME280;45557;50.298;18.930;2022-12-07T06:45:55;97732.27;;;1.19;86.69
59690;BME280;45557;50.298;18.930;2022-12-07T06:52:41;97733.11;;;1.18;86.50
59690;BME280;45557;50.298;18.930;2022-12-07T07:05:25;97732.56;;;1.07;86.40
59690;BME280;45557;50.298;18.930;2022-12-07T07:12:08;97733.73;;;1.05;86.69
59690;BME280;45557;50.298;18.930;2022-12-07T07:18:59;97739.45;;;0.99;87.23
59690;BME280;45557;50.298;18.930;2022-12-07T07:25:42;97744.58;;;1.01;87.17
59690;BME280;45557;50.298;18.930;2022-12-07T07:32:25;97744.08;;;1.03;87.23
59690;BME280;45557;50.298;18.930;2022-12-07T07:39:11;97743.29;;;1.03;87.55
59690;BME280;45557;50.298;18.930;2022-12-07T07:45:54;97740.42;;;1.02;87.53
59690;BME280;45557;50.298;18.930;2022-12-07T07:53:10;97746.52;;;1.10;87.56
59690;BME280;45557;50.298;18.930;2022-12-07T07:59:58;97739.36;;;1.23;87.77
59690;BME280;45557;50.298;18.930;2022-12-07T08:06:42;97743.69;;;1.34;87.82
59690;BME280;45557;50.298;18.930;2022-12-07T08:13:35;97743.63;;;1.49;87.35
59690;BME280;45557;50.298;18.930;2022-12-07T08:20:18;97755.95;;;1.51;87.08
59690;BME280;45557;50.298;18.930;2022-12-07T08:27:01;97763.91;;;1.55;87.22
59690;BME280;45557;50.298;18.930;2022-12-07T08:33:46;97764.37;;;1.60;86.90
59690;BME280;45557;50.298;18.930;2022-12-07T08:40:29;97768.09;;;1.71;87.37
59690;BME280;45557;50.298;18.930;2022-12-07T08:47:16;97771.95;;;1.80;86.72
59690;BME280;45557;50.298;18.930;2022-12-07T08:54:00;97783.09;;;1.84;86.52
59690;BME280;45557;50.298;18.930;2022-12-07T09:00:43;97780.95;;;1.88;86.31
59690;BME280;45557;50.298;18.930;2022-12-07T09:07:07;97779.37;;;1.86;86.44
59690;BME280;45557;50.298;18.930;2022-12-07T09:12:29;97773.52;;;1.89;86.27
59690;BME280;45557;50.298;18.930;2022-12-07T09:18:08;97769.98;;;1.95;86.42
59690;BME280;45557;50.298;18.930;2022-12-07T09:23:50;97760.64;;;1.99;86.57
59690;BME280;45557;50.298;18.930;2022-12-07T09:30:12;97750.99;;;2.14;87.06
59690;BME280;45557;50.298;18.930;2022-12-07T09:35:36;97745.09;;;2.30;86.59
59690;BME280;45557;50.298;18.930;2022-12-07T09:41:05;97739.85;;;2.44;86.24
59690;BME280;45557;50.298;18.930;2022-12-07T09:46:47;97731.77;;;2.49;85.45
59690;BME280;45557;50.298;18.930;2022-12-07T09:52:36;97730.56;;;2.48;85.35
59690;BME280;45557;50.298;18.930;2022-12-07T09:59:13;97720.55;;;2.55;85.36
59690;BME280;45557;50.298;18.930;2022-12-07T10:05:00;97718.70;;;2.67;85.45
59690;BME280;45557;50.298;18.930;2022-12-07T10:10:54;97704.19;;;2.78;85.23
59690;BME280;45557;50.298;18.930;2022-12-07T10:17:49;97691.91;;;2.83;85.15
59690;BME280;45557;50.298;18.930;2022-12-07T10:24:31;97687.23;;;2.95;84.59
59690;BME280;45557;50.298;18.930;2022-12-07T10:31:17;97677.56;;;3.04;84.43
59690;BME280;45557;50.298;18.930;2022-12-07T10:38:07;97677.61;;;3.11;84.48
59690;BME280;45557;50.298;18.930;2022-12-07T10:44:44;97672.42;;;3.23;84.69
59690;BME280;45557;50.298;18.930;2022-12-07T10:51:15;97672.98;;;3.34;83.89
59690;BME280;45557;50.298;18.930;2022-12-07T11:04:08;97665.79;;;3.35;83.49
59690;BME280;45557;50.298;18.930;2022-12-07T11:10:26;97665.36;;;3.25;82.79
59690;BME280;45557;50.298;18.930;2022-12-07T11:30:08;97646.23;;;3.20;82.87
59690;BME280;45557;50.298;18.930;2022-12-07T11:37:06;97634.68;;;3.21;82.34
59690;BME280;45557;50.298;18.930;2022-12-07T11:51:04;97621.89;;;3.44;81.31
59690;BME280;45557;50.298;18.930;2022-12-07T12:04:39;97627.90;;;3.81;80.03
59690;BME280;45557;50.298;18.930;2022-12-07T12:11:38;97625.17;;;4.02;77.89
59690;BME280;45557;50.298;18.930;2022-12-07T12:24:59;97620.88;;;4.06;75.95
59690;BME280;45557;50.298;18.930;2022-12-07T12:37:46;97611.52;;;3.79;75.99
59690;BME280;45557;50.298;18.930;2022-12-07T12:51:38;97588.84;;;3.74;75.56
59690;BME280;45557;50.298;18.930;2022-12-07T12:58:39;97587.92;;;3.81;75.46
59690;BME280;45557;50.298;18.930;2022-12-07T13:05:37;97591.53;;;3.76;75.61
59690;BME280;45557;50.298;18.930;2022-12-07T13:20:05;97604.02;;;3.67;75.71
59690;BME280;45557;50.298;18.930;2022-12-07T13:26:53;97599.48;;;3.66;75.52
59690;BME280;45557;50.298;18.930;2022-12-07T13:33:45;97607.08;;;3.58;73.26
59690;BME280;45557;50.298;18.930;2022-12-07T13:40:39;97605.78;;;3.45;72.23
59690;BME280;45557;50.298;18.930;2022-12-07T13:54:17;97615.50;;;3.36;71.65
59690;BME280;45557;50.298;18.930;2022-12-07T14:11:59;97628.89;;;3.54;70.10
59690;BME280;45557;50.298;18.930;2022-12-07T14:25:48;97638.00;;;3.16;71.57
59690;BME280;45557;50.298;18.930;2022-12-07T14:39:57;97651.74;;;3.00;71.92
59690;BME280;45557;50.298;18.930;2022-12-07T14:46:38;97662.08;;;2.89;72.48
59690;BME280;45557;50.298;18.930;2022-12-07T14:53:21;97658.23;;;2.80;73.14
59690;BME280;45557;50.298;18.930;2022-12-07T15:00:02;97662.10;;;2.78;73.18
59690;BME280;45557;50.298;18.930;2022-12-07T15:11:56;97672.23;;;2.69;72.99
59690;BME280;45557;50.298;18.930;2022-12-07T15:18:11;97667.05;;;2.61;72.89
59690;BME280;45557;50.298;18.930;2022-12-07T15:25:14;97674.18;;;2.59;72.12
59690;BME280;45557;50.298;18.930;2022-12-07T15:31:57;97672.81;;;2.53;72.15
59690;BME280;45557;50.298;18.930;2022-12-07T15:38:40;97672.06;;;2.45;72.43
59690;BME280;45557;50.298;18.930;2022-12-07T15:45:04;97666.35;;;2.40;72.97
59690;BME280;45557;50.298;18.930;2022-12-07T15:50:48;97671.89;;;2.44;72.96
59690;BME280;45557;50.298;18.930;2022-12-07T15:57:11;97669.82;;;2.46;73.48
59690;BME280;45557;50.298;18.930;2022-12-07T16:03:11;97671.93;;;2.44;73.38
59690;BME280;45557;50.298;18.930;2022-12-07T16:08:54;97677.28;;;2.36;73.12
59690;BME280;45557;50.298;18.930;2022-12-07T16:15:38;97677.58;;;2.32;73.55
59690;BME280;45557;50.298;18.930;2022-12-07T16:22:22;97681.95;;;2.32;73.32
59690;BME280;45557;50.298;18.930;2022-12-07T16:29:05;97686.73;;;2.27;73.51
59690;BME280;45557;50.298;18.930;2022-12-07T16:35:58;97680.90;;;2.18;73.72
59690;BME280;45557;50.298;18.930;2022-12-07T16:43:01;97674.56;;;2.13;74.26
59690;BME280;45557;50.298;18.930;2022-12-07T16:49:44;97676.61;;;2.18;74.03
59690;BME280;45557;50.298;18.930;2022-12-07T16:56:31;97680.95;;;2.22;74.13
59690;BME280;45557;50.298;18.930;2022-12-07T17:03:04;97683.59;;;2.19;74.29
59690;BME280;45557;50.298;18.930;2022-12-07T17:09:30;97688.67;;;2.18;74.55
59690;BME280;45557;50.298;18.930;2022-12-07T17:16:00;97686.28;;;2.22;74.39
59690;BME280;45557;50.298;18.930;2022-12-07T17:22:42;97683.92;;;2.23;74.62
59690;BME280;45557;50.298;18.930;2022-12-07T17:28:50;97688.72;;;2.20;74.65
59690;BME280;45557;50.298;18.930;2022-12-07T17:35:32;97676.35;;;2.16;74.91
59690;BME280;45557;50.298;18.930;2022-12-07T17:42:18;97672.85;;;2.19;74.87
59690;BME280;45557;50.298;18.930;2022-12-07T17:48:26;97666.98;;;2.20;74.87
59690;BME280;45557;50.298;18.930;2022-12-07T17:54:15;97674.48;;;2.19;74.62
59690;BME280;45557;50.298;18.930;2022-12-07T18:00:26;97675.00;;;2.23;74.76
59690;BME280;45557;50.298;18.930;2022-12-07T18:07:30;97685.02;;;2.33;74.98
59690;BME280;45557;50.298;18.930;2022-12-07T18:20:47;97691.67;;;2.36;74.48
59690;BME280;45557;50.298;18.930;2022-12-07T18:36:15;97675.70;;;2.24;74.98
59690;BME280;45557;50.298;18.930;2022-12-07T18:49:34;97673.84;;;2.25;74.88
59690;BME280;45557;50.298;18.930;2022-12-07T18:56:38;97682.34;;;2.28;74.73
59690;BME280;45557;50.298;18.930;2022-12-07T19:02:20;97682.05;;;2.32;74.64
59690;BME280;45557;50.298;18.930;2022-12-07T19:08:26;97684.06;;;2.38;74.78
59690;BME280;45557;50.298;18.930;2022-12-07T19:14:40;97681.09;;;2.41;74.59
59690;BME280;45557;50.298;18.930;2022-12-07T19:21:03;97684.17;;;2.39;74.19
59690;BME280;45557;50.298;18.930;2022-12-07T19:26:59;97682.83;;;2.42;73.97
59690;BME280;45557;50.298;18.930;2022-12-07T19:32:52;97694.01;;;2.40;73.82
59690;BME280;45557;50.298;18.930;2022-12-07T19:39:15;97698.42;;;2.34;73.84
59690;BME280;45557;50.298;18.930;2022-12-07T19:46:04;97699.38;;;2.29;74.51
59690;BME280;45557;50.298;18.930;2022-12-07T19:52:47;97711.20;;;2.32;74.69
59690;BME280;45557;50.298;18.930;2022-12-07T19:59:32;97715.11;;;2.31;75.00
59690;BME280;45557;50.298;18.930;2022-12-07T20:06:17;97729.01;;;2.18;76.34
59690;BME280;45557;50.298;18.930;2022-12-07T20:20:11;97727.02;;;1.75;79.34
59690;BME280;45557;50.298;18.930;2022-12-07T20:27:00;97726.02;;;1.56;80.52
59690;BME280;45557;50.298;18.930;2022-12-07T20:33:46;97722.81;;;1.54;81.14
59690;BME280;45557;50.298;18.930;2022-12-07T20:40:44;97720.14;;;1.60;81.55
59690;BME280;45557;50.298;18.930;2022-12-07T20:47:25;97718.18;;;1.64;81.92
59690;BME280;45557;50.298;18.930;2022-12-07T20:54:37;97725.59;;;1.68;81.66
59690;BME280;45557;50.298;18.930;2022-12-07T21:01:21;97723.33;;;1.79;81.95
59690;BME280;45557;50.298;18.930;2022-12-07T21:07:47;97722.64;;;1.90;81.72
59690;BME280;45557;50.298;18.930;2022-12-07T21:14:27;97720.02;;;1.98;81.53
59690;BME280;45557;50.298;18.930;2022-12-07T21:20:50;97718.81;;;2.09;80.98
59690;BME280;45557;50.298;18.930;2022-12-07T21:27:33;97717.49;;;2.19;80.95
59690;BME280;45557;50.298;18.930;2022-12-07T21:34:22;97719.02;;;2.26;80.78
59690;BME280;45557;50.298;18.930;2022-12-07T21:41:14;97724.23;;;2.40;80.14
59690;BME280;45557;50.298;18.930;2022-12-07T21:47:55;97718.44;;;2.51;80.05
59690;BME280;45557;50.298;18.930;2022-12-07T21:54:38;97725.97;;;2.51;79.56
59690;BME280;45557;50.298;18.930;2022-12-07T22:01:25;97725.17;;;2.48;79.09
59690;BME280;45557;50.298;18.930;2022-12-07T22:08:07;97726.42;;;2.50;78.84
59690;BME280;45557;50.298;18.930;2022-12-07T22:14:54;97736.61;;;2.44;78.85
59690;BME280;45557;50.298;18.930;2022-12-07T22:21:19;97736.39;;;2.31;78.74
59690;BME280;45557;50.298;18.930;2022-12-07T22:28:04;97739.03;;;2.23;78.51
59690;BME280;45557;50.298;18.930;2022-12-07T22:34:50;97730.16;;;2.23;78.60
59690;BME280;45557;50.298;18.930;2022-12-07T22:41:47;97735.41;;;2.23;78.86
59690;BME280;45557;50.298;18.930;2022-12-07T22:48:29;97736.45;;;2.16;78.54
59690;BME280;45557;50.298;18.930;2022-12-07T22:55:15;97740.14;;;2.07;77.92
59690;BME280;45557;50.298;18.930;2022-12-07T23:02:01;97738.58;;;2.04;77.93
59690;BME280;45557;50.298;18.930;2022-12-07T23:08:42;97737.05;;;1.94;77.78
59690;BME280;45557;50.298;18.930;2022-12-07T23:15:25;97733.91;;;1.82;77.69
59690;BME280;45557;50.298;18.930;2022-12-07T23:22:09;97727.84;;;1.73;78.05
59690;BME280;45557;50.298;18.930;2022-12-07T23:28:52;97721.75;;;1.74;78.01
59690;BME280;45557;50.298;18.930;2022-12-07T23:35:35;97715.85;;;1.74;78.09
59690;BME280;45557;50.298;18.930;2022-12-07T23:42:01;97717.00;;;1.71;78.06
59690;BME280;45557;50.298;18.930;2022-12-07T23:48:44;97716.81;;;1.66;78.30
59690;BME280;45557;50.298;18.930;2022-12-07T23:55:27;97720.86;;;1.67;78.27
